sensor_id;sensor_type;location;lat;lon;timestamp;P1;durP1;ratioP1;P2;durP2;ratioP2
14394;SDS011;7282;49.204;10.652;2023-11-19T00:02:22;19.80;;;15.73;;
14394;SDS011;7282;49.204;10.652;2023-11-19T00:04:48;17.70;;;15.80;;
14394;SDS011;7282;49.204;10.652;2023-11-19T00:07:15;16.67;;;14.97;;
14394;SDS011;7282;49.204;10.652;2023-11-19T00:09:42;18.97;;;16.97;;
14394;SDS011;7282;49.204;10.652;2023-11-19T00:12:09;18.73;;;16.17;;
14394;SDS011;7282;49.204;10.652;2023-11-19T00:14:36;21.20;;;17.30;;
14394;SDS011;7282;49.204;10.652;2023-11-19T00:17:03;22.17;;;17.90;;
14394;SDS011;7282;49.204;10.652;2023-11-19T00:19:30;21.37;;;16.97;;
14394;SDS011;7282;49.204;10.652;2023-11-19T00:21:56;22.20;;;18.03;;
14394;SDS011;7282;49.204;10.652;2023-11-19T00:24:25;22.70;;;18.93;;
14394;SDS011;7282;49.204;10.652;2023-11-19T00:26:52;24.33;;;18.60;;
14394;SDS011;7282;49.204;10.652;2023-11-19T00:29:18;24.23;;;18.80;;
14394;SDS011;7282;49.204;10.652;2023-11-19T00:31:46;21.80;;;17.37;;
14394;SDS011;7282;49.204;10.652;2023-11-19T00:34:12;24.60;;;18.80;;
14394;SDS011;7282;49.204;10.652;2023-11-19T00:36:39;22.97;;;18.47;;
14394;SDS011;7282;49.204;10.652;2023-11-19T00:39:06;22.77;;;18.10;;
14394;SDS011;7282;49.204;10.652;2023-11-19T00:41:32;23.37;;;18.30;;
14394;SDS011;7282;49.204;10.652;2023-11-19T00:43:59;22.70;;;18.60;;
14394;SDS011;7282;49.204;10.652;2023-11-19T00:46:26;20.10;;;16.50;;
14394;SDS011;7282;49.204;10.652;2023-11-19T00:48:53;25.07;;;19.40;;
14394;SDS011;7282;49.204;10.652;2023-11-19T00:51:20;25.30;;;19.43;;
14394;SDS011;7282;49.204;10.652;2023-11-19T00:53:47;23.03;;;17.67;;
14394;SDS011;7282;49.204;10.652;2023-11-19T00:56:14;27.00;;;20.17;;
14394;SDS011;7282;49.204;10.652;2023-11-19T00:58:42;20.93;;;17.23;;
14394;SDS011;7282;49.204;10.652;2023-11-19T01:01:08;23.67;;;18.40;;
14394;SDS011;7282;49.204;10.652;2023-11-19T01:03:35;18.73;;;15.77;;
14394;SDS011;7282;49.204;10.652;2023-11-19T01:06:02;17.93;;;15.53;;
14394;SDS011;7282;49.204;10.652;2023-11-19T01:08:29;21.70;;;17.03;;
14394;SDS011;7282;49.204;10.652;2023-11-19T01:10:55;23.30;;;17.43;;
14394;SDS011;7282;49.204;10.652;2023-11-19T01:13:22;26.17;;;20.40;;
14394;SDS011;7282;49.204;10.652;2023-11-19T01:15:49;27.30;;;19.33;;
14394;SDS011;7282;49.204;10.652;2023-11-19T01:18:16;26.23;;;19.57;;
14394;SDS011;7282;49.204;10.652;2023-11-19T01:20:42;23.10;;;16.97;;
14394;SDS011;7282;49.204;10.652;2023-11-19T01:23:09;26.30;;;18.77;;
14394;SDS011;7282;49.204;10.652;2023-11-19T01:25:36;28.53;;;19.30;;
14394;SDS011;7282;49.204;10.652;2023-11-19T01:28:04;22.57;;;18.07;;
14394;SDS011;7282;49.204;10.652;2023-11-19T01:30:31;26.10;;;20.07;;
14394;SDS011;7282;49.204;10.652;2023-11-19T01:32:57;33.50;;;21.77;;
14394;SDS011;7282;49.204;10.652;2023-11-19T01:35:24;27.50;;;19.90;;
14394;SDS011;7282;49.204;10.652;2023-11-19T01:37:51;26.50;;;20.03;;
14394;SDS011;7282;49.204;10.652;2023-11-19T01:40:20;22.77;;;18.53;;
14394;SDS011;7282;49.204;10.652;2023-11-19T01:42:46;25.03;;;19.57;;
14394;SDS011;7282;49.204;10.652;2023-11-19T01:45:19;27.83;;;20.30;;
14394;SDS011;7282;49.204;10.652;2023-11-19T01:47:41;29.37;;;20.43;;
14394;SDS011;7282;49.204;10.652;2023-11-19T01:50:08;26.30;;;18.50;;
14394;SDS011;7282;49.204;10.652;2023-11-19T01:52:35;42.67;;;26.47;;
14394;SDS011;7282;49.204;10.652;2023-11-19T01:55:05;32.57;;;23.20;;
14394;SDS011;7282;49.204;10.652;2023-11-19T01:57:33;32.07;;;22.90;;
14394;SDS011;7282;49.204;10.652;2023-11-19T02:00:00;37.20;;;26.90;;
14394;SDS011;7282;49.204;10.652;2023-11-19T02:02:28;33.37;;;24.57;;
14394;SDS011;7282;49.204;10.652;2023-11-19T02:04:55;48.90;;;30.70;;
14394;SDS011;7282;49.204;10.652;2023-11-19T02:07:22;37.67;;;26.03;;
14394;SDS011;7282;49.204;10.652;2023-11-19T02:09:50;34.17;;;24.67;;
14394;SDS011;7282;49.204;10.652;2023-11-19T02:12:17;48.40;;;31.70;;
14394;SDS011;7282;49.204;10.652;2023-11-19T02:14:43;46.07;;;30.80;;
14394;SDS011;7282;49.204;10.652;2023-11-19T02:17:29;41.23;;;27.93;;
14394;SDS011;7282;49.204;10.652;2023-11-19T02:19:58;36.63;;;25.90;;
14394;SDS011;7282;49.204;10.652;2023-11-19T02:22:24;40.47;;;27.83;;
14394;SDS011;7282;49.204;10.652;2023-11-19T02:24:51;44.23;;;28.93;;
14394;SDS011;7282;49.204;10.652;2023-11-19T02:27:22;49.23;;;30.13;;
14394;SDS011;7282;49.204;10.652;2023-11-19T02:29:49;38.33;;;27.03;;
14394;SDS011;7282;49.204;10.652;2023-11-19T02:32:16;42.53;;;29.13;;
14394;SDS011;7282;49.204;10.652;2023-11-19T02:34:43;52.87;;;32.27;;
14394;SDS011;7282;49.204;10.652;2023-11-19T02:37:09;48.40;;;30.70;;
14394;SDS011;7282;49.204;10.652;2023-11-19T02:39:37;36.03;;;25.30;;
14394;SDS011;7282;49.204;10.652;2023-11-19T02:42:03;51.97;;;28.50;;
14394;SDS011;7282;49.204;10.652;2023-11-19T02:44:30;34.63;;;25.13;;
14394;SDS011;7282;49.204;10.652;2023-11-19T02:46:57;35.17;;;25.03;;
14394;SDS011;7282;49.204;10.652;2023-11-19T02:49:25;45.83;;;28.03;;
14394;SDS011;7282;49.204;10.652;2023-11-19T02:51:52;34.73;;;24.23;;
14394;SDS011;7282;49.204;10.652;2023-11-19T02:54:19;41.30;;;26.10;;
14394;SDS011;7282;49.204;10.652;2023-11-19T02:56:47;37.23;;;25.73;;
14394;SDS011;7282;49.204;10.652;2023-11-19T02:59:15;37.10;;;25.57;;
14394;SDS011;7282;49.204;10.652;2023-11-19T03:01:44;33.23;;;22.53;;
14394;SDS011;7282;49.204;10.652;2023-11-19T03:04:13;34.60;;;23.93;;
14394;SDS011;7282;49.204;10.652;2023-11-19T03:06:41;34.47;;;23.37;;
14394;SDS011;7282;49.204;10.652;2023-11-19T03:09:08;36.73;;;24.07;;
14394;SDS011;7282;49.204;10.652;2023-11-19T03:11:37;35.53;;;23.30;;
14394;SDS011;7282;49.204;10.652;2023-11-19T03:14:03;35.27;;;24.40;;
14394;SDS011;7282;49.204;10.652;2023-11-19T03:16:30;32.90;;;22.67;;
14394;SDS011;7282;49.204;10.652;2023-11-19T03:18:57;31.63;;;21.50;;
14394;SDS011;7282;49.204;10.652;2023-11-19T03:21:28;31.87;;;20.60;;
14394;SDS011;7282;49.204;10.652;2023-11-19T03:23:55;31.73;;;21.10;;
14394;SDS011;7282;49.204;10.652;2023-11-19T03:26:22;25.80;;;18.57;;
14394;SDS011;7282;49.204;10.652;2023-11-19T03:28:49;34.90;;;21.77;;
14394;SDS011;7282;49.204;10.652;2023-11-19T03:31:15;25.10;;;18.17;;
14394;SDS011;7282;49.204;10.652;2023-11-19T03:33:42;23.97;;;16.90;;
14394;SDS011;7282;49.204;10.652;2023-11-19T03:36:09;29.43;;;18.00;;
14394;SDS011;7282;49.204;10.652;2023-11-19T03:38:36;25.57;;;16.33;;
14394;SDS011;7282;49.204;10.652;2023-11-19T03:41:12;25.53;;;17.57;;
14394;SDS011;7282;49.204;10.652;2023-11-19T03:43:39;27.53;;;18.70;;
14394;SDS011;7282;49.204;10.652;2023-11-19T03:46:20;26.80;;;17.33;;
14394;SDS011;7282;49.204;10.652;2023-11-19T03:48:44;24.53;;;17.63;;
14394;SDS011;7282;49.204;10.652;2023-11-19T03:51:12;23.40;;;17.00;;
14394;SDS011;7282;49.204;10.652;2023-11-19T03:53:44;23.53;;;16.90;;
14394;SDS011;7282;49.204;10.652;2023-11-19T03:56:11;20.07;;;14.57;;
14394;SDS011;7282;49.204;10.652;2023-11-19T03:58:38;17.97;;;13.50;;
14394;SDS011;7282;49.204;10.652;2023-11-19T04:01:04;20.10;;;13.77;;
14394;SDS011;7282;49.204;10.652;2023-11-19T04:03:31;19.93;;;14.30;;
14394;SDS011;7282;49.204;10.652;2023-11-19T04:05:58;16.90;;;13.03;;
14394;SDS011;7282;49.204;10.652;2023-11-19T04:08:25;29.77;;;18.20;;
14394;SDS011;7282;49.204;10.652;2023-11-19T04:10:52;28.63;;;17.80;;
14394;SDS011;7282;49.204;10.652;2023-11-19T04:13:19;32.30;;;18.97;;
14394;SDS011;7282;49.204;10.652;2023-11-19T04:15:45;19.03;;;14.37;;
14394;SDS011;7282;49.204;10.652;2023-11-19T04:18:12;34.47;;;19.37;;
14394;SDS011;7282;49.204;10.652;2023-11-19T04:20:39;15.53;;;11.83;;
14394;SDS011;7282;49.204;10.652;2023-11-19T04:23:08;14.63;;;10.93;;
14394;SDS011;7282;49.204;10.652;2023-11-19T04:25:35;14.73;;;9.87;;
14394;SDS011;7282;49.204;10.652;2023-11-19T04:28:02;11.70;;;8.57;;
14394;SDS011;7282;49.204;10.652;2023-11-19T04:30:29;10.17;;;7.03;;
14394;SDS011;7282;49.204;10.652;2023-11-19T04:32:57;6.63;;;5.90;;
14394;SDS011;7282;49.204;10.652;2023-11-19T04:35:24;8.33;;;6.33;;
14394;SDS011;7282;49.204;10.652;2023-11-19T04:37:52;7.33;;;4.80;;
14394;SDS011;7282;49.204;10.652;2023-11-19T04:40:19;5.23;;;4.37;;
14394;SDS011;7282;49.204;10.652;2023-11-19T04:42:48;4.80;;;4.00;;
14394;SDS011;7282;49.204;10.652;2023-11-19T04:45:15;3.57;;;3.03;;
14394;SDS011;7282;49.204;10.652;2023-11-19T04:47:44;4.70;;;3.20;;
14394;SDS011;7282;49.204;10.652;2023-11-19T04:50:11;3.00;;;2.77;;
14394;SDS011;7282;49.204;10.652;2023-11-19T04:52:38;3.47;;;2.77;;
14394;SDS011;7282;49.204;10.652;2023-11-19T04:55:09;3.57;;;3.20;;
14394;SDS011;7282;49.204;10.652;2023-11-19T04:57:37;3.50;;;3.20;;
14394;SDS011;7282;49.204;10.652;2023-11-19T05:00:05;3.27;;;2.60;;
14394;SDS011;7282;49.204;10.652;2023-11-19T05:02:33;3.50;;;2.60;;
14394;SDS011;7282;49.204;10.652;2023-11-19T05:04:59;2.83;;;2.63;;
14394;SDS011;7282;49.204;10.652;2023-11-19T05:07:26;3.00;;;2.70;;
14394;SDS011;7282;49.204;10.652;2023-11-19T05:09:53;3.70;;;2.70;;
14394;SDS011;7282;49.204;10.652;2023-11-19T05:12:19;3.43;;;2.80;;
14394;SDS011;7282;49.204;10.652;2023-11-19T05:14:47;3.83;;;3.20;;
14394;SDS011;7282;49.204;10.652;2023-11-19T05:17:16;3.37;;;2.80;;
14394;SDS011;7282;49.204;10.652;2023-11-19T05:19:44;3.50;;;3.20;;
14394;SDS011;7282;49.204;10.652;2023-11-19T05:22:11;3.70;;;2.90;;
14394;SDS011;7282;49.204;10.652;2023-11-19T05:24:39;3.57;;;3.03;;
14394;SDS011;7282;49.204;10.652;2023-11-19T05:27:06;3.30;;;3.00;;
14394;SDS011;7282;49.204;10.652;2023-11-19T05:29:34;3.70;;;3.07;;
14394;SDS011;7282;49.204;10.652;2023-11-19T05:32:00;2.87;;;2.57;;
14394;SDS011;7282;49.204;10.652;2023-11-19T05:34:27;3.20;;;2.90;;
14394;SDS011;7282;49.204;10.652;2023-11-19T05:36:54;4.40;;;3.43;;
14394;SDS011;7282;49.204;10.652;2023-11-19T05:39:21;3.50;;;3.20;;
14394;SDS011;7282;49.204;10.652;2023-11-19T05:41:48;3.30;;;3.00;;
14394;SDS011;7282;49.204;10.652;2023-11-19T05:44:14;3.20;;;2.90;;
14394;SDS011;7282;49.204;10.652;2023-11-19T05:46:41;3.90;;;3.13;;
14394;SDS011;7282;49.204;10.652;2023-11-19T05:49:09;2.47;;;2.23;;
14394;SDS011;7282;49.204;10.652;2023-11-19T05:51:38;2.40;;;2.20;;
14394;SDS011;7282;49.204;10.652;2023-11-19T05:54:09;2.50;;;2.30;;
14394;SDS011;7282;49.204;10.652;2023-11-19T05:56:36;2.80;;;2.60;;
14394;SDS011;7282;49.204;10.652;2023-11-19T05:59:03;2.90;;;2.70;;
14394;SDS011;7282;49.204;10.652;2023-11-19T06:01:33;3.70;;;3.40;;
14394;SDS011;7282;49.204;10.652;2023-11-19T06:04:00;3.93;;;3.20;;
14394;SDS011;7282;49.204;10.652;2023-11-19T06:06:28;2.57;;;2.37;;
14394;SDS011;7282;49.204;10.652;2023-11-19T06:08:54;2.47;;;2.27;;
14394;SDS011;7282;49.204;10.652;2023-11-19T06:11:21;2.00;;;1.80;;
14394;SDS011;7282;49.204;10.652;2023-11-19T06:13:48;2.30;;;2.10;;
14394;SDS011;7282;49.204;10.652;2023-11-19T06:16:16;2.30;;;2.10;;
14394;SDS011;7282;49.204;10.652;2023-11-19T06:18:43;1.93;;;1.73;;
14394;SDS011;7282;49.204;10.652;2023-11-19T06:21:10;2.20;;;2.00;;
14394;SDS011;7282;49.204;10.652;2023-11-19T06:23:37;1.90;;;1.80;;
14394;SDS011;7282;49.204;10.652;2023-11-19T06:26:04;1.90;;;1.80;;
14394;SDS011;7282;49.204;10.652;2023-11-19T06:28:32;1.97;;;1.87;;
14394;SDS011;7282;49.204;10.652;2023-11-19T06:30:59;1.63;;;1.53;;
14394;SDS011;7282;49.204;10.652;2023-11-19T06:33:26;1.63;;;1.40;;
14394;SDS011;7282;49.204;10.652;2023-11-19T06:35:53;2.30;;;1.90;;
14394;SDS011;7282;49.204;10.652;2023-11-19T06:38:20;1.83;;;1.60;;
14394;SDS011;7282;49.204;10.652;2023-11-19T06:40:47;1.60;;;1.50;;
14394;SDS011;7282;49.204;10.652;2023-11-19T06:43:14;3.23;;;1.70;;
14394;SDS011;7282;49.204;10.652;2023-11-19T06:45:41;1.80;;;1.70;;
14394;SDS011;7282;49.204;10.652;2023-11-19T06:48:08;1.70;;;1.60;;
14394;SDS011;7282;49.204;10.652;2023-11-19T06:50:34;1.60;;;1.50;;
14394;SDS011;7282;49.204;10.652;2023-11-19T06:53:01;1.87;;;1.77;;
14394;SDS011;7282;49.204;10.652;2023-11-19T06:55:28;2.13;;;1.60;;
14394;SDS011;7282;49.204;10.652;2023-11-19T06:57:55;2.07;;;1.70;;
14394;SDS011;7282;49.204;10.652;2023-11-19T07:00:24;2.20;;;2.00;;
14394;SDS011;7282;49.204;10.652;2023-11-19T07:02:51;1.97;;;1.80;;
14394;SDS011;7282;49.204;10.652;2023-11-19T07:05:18;1.93;;;1.80;;
14394;SDS011;7282;49.204;10.652;2023-11-19T07:07:45;2.00;;;1.87;;
14394;SDS011;7282;49.204;10.652;2023-11-19T07:10:12;2.43;;;2.13;;
14394;SDS011;7282;49.204;10.652;2023-11-19T07:12:39;3.07;;;2.70;;
14394;SDS011;7282;49.204;10.652;2023-11-19T07:15:06;3.80;;;2.90;;
14394;SDS011;7282;49.204;10.652;2023-11-19T07:17:33;2.97;;;2.67;;
14394;SDS011;7282;49.204;10.652;2023-11-19T07:20:01;3.67;;;3.37;;
14394;SDS011;7282;49.204;10.652;2023-11-19T07:22:28;3.57;;;3.23;;
14394;SDS011;7282;49.204;10.652;2023-11-19T07:24:56;4.50;;;4.03;;
14394;SDS011;7282;49.204;10.652;2023-11-19T07:27:22;5.00;;;4.50;;
14394;SDS011;7282;49.204;10.652;2023-11-19T07:29:50;6.20;;;4.53;;
14394;SDS011;7282;49.204;10.652;2023-11-19T07:32:17;6.63;;;5.27;;
14394;SDS011;7282;49.204;10.652;2023-11-19T07:34:44;7.73;;;5.50;;
14394;SDS011;7282;49.204;10.652;2023-11-19T07:37:10;7.23;;;5.80;;
14394;SDS011;7282;49.204;10.652;2023-11-19T07:39:38;6.40;;;4.90;;
14394;SDS011;7282;49.204;10.652;2023-11-19T07:42:06;7.87;;;5.27;;
14394;SDS011;7282;49.204;10.652;2023-11-19T07:44:33;6.30;;;4.70;;
14394;SDS011;7282;49.204;10.652;2023-11-19T07:47:00;5.23;;;4.57;;
14394;SDS011;7282;49.204;10.652;2023-11-19T07:49:27;5.23;;;4.40;;
14394;SDS011;7282;49.204;10.652;2023-11-19T07:51:53;5.80;;;4.60;;
14394;SDS011;7282;49.204;10.652;2023-11-19T07:54:20;5.30;;;4.50;;
14394;SDS011;7282;49.204;10.652;2023-11-19T07:56:47;4.03;;;3.63;;
14394;SDS011;7282;49.204;10.652;2023-11-19T07:59:15;3.90;;;3.50;;
14394;SDS011;7282;49.204;10.652;2023-11-19T08:01:42;3.83;;;3.53;;
14394;SDS011;7282;49.204;10.652;2023-11-19T08:04:09;4.13;;;3.50;;
14394;SDS011;7282;49.204;10.652;2023-11-19T08:06:36;4.07;;;2.80;;
14394;SDS011;7282;49.204;10.652;2023-11-19T08:09:03;4.67;;;3.90;;
14394;SDS011;7282;49.204;10.652;2023-11-19T08:11:29;3.97;;;3.47;;
14394;SDS011;7282;49.204;10.652;2023-11-19T08:13:56;4.27;;;3.60;;
14394;SDS011;7282;49.204;10.652;2023-11-19T08:16:23;4.20;;;3.40;;
14394;SDS011;7282;49.204;10.652;2023-11-19T08:18:50;3.97;;;3.57;;
14394;SDS011;7282;49.204;10.652;2023-11-19T08:21:16;4.07;;;3.63;;
14394;SDS011;7282;49.204;10.652;2023-11-19T08:23:43;3.93;;;3.30;;
14394;SDS011;7282;49.204;10.652;2023-11-19T08:26:10;5.63;;;4.10;;
14394;SDS011;7282;49.204;10.652;2023-11-19T08:28:37;5.87;;;4.13;;
14394;SDS011;7282;49.204;10.652;2023-11-19T08:31:04;5.73;;;4.03;;
14394;SDS011;7282;49.204;10.652;2023-11-19T08:33:31;4.97;;;3.70;;
14394;SDS011;7282;49.204;10.652;2023-11-19T08:35:58;3.90;;;3.50;;
14394;SDS011;7282;49.204;10.652;2023-11-19T08:38:25;5.33;;;3.77;;
14394;SDS011;7282;49.204;10.652;2023-11-19T08:40:51;5.17;;;3.43;;
14394;SDS011;7282;49.204;10.652;2023-11-19T08:43:18;6.90;;;3.90;;
14394;SDS011;7282;49.204;10.652;2023-11-19T08:45:45;4.17;;;3.07;;
14394;SDS011;7282;49.204;10.652;2023-11-19T08:48:11;3.90;;;3.23;;
14394;SDS011;7282;49.204;10.652;2023-11-19T08:50:38;5.80;;;3.30;;
14394;SDS011;7282;49.204;10.652;2023-11-19T08:53:05;4.27;;;3.30;;
14394;SDS011;7282;49.204;10.652;2023-11-19T08:55:32;3.23;;;2.87;;
14394;SDS011;7282;49.204;10.652;2023-11-19T08:57:59;5.60;;;3.30;;
14394;SDS011;7282;49.204;10.652;2023-11-19T09:00:26;3.83;;;2.57;;
14394;SDS011;7282;49.204;10.652;2023-11-19T09:02:52;4.23;;;3.23;;
14394;SDS011;7282;49.204;10.652;2023-11-19T09:05:19;3.63;;;2.50;;
14394;SDS011;7282;49.204;10.652;2023-11-19T09:07:46;3.60;;;2.57;;
14394;SDS011;7282;49.204;10.652;2023-11-19T09:10:13;3.77;;;2.90;;
14394;SDS011;7282;49.204;10.652;2023-11-19T09:12:39;2.57;;;2.37;;
14394;SDS011;7282;49.204;10.652;2023-11-19T09:15:06;3.07;;;2.80;;
14394;SDS011;7282;49.204;10.652;2023-11-19T09:17:33;2.90;;;2.50;;
14394;SDS011;7282;49.204;10.652;2023-11-19T09:20:01;3.97;;;2.43;;
14394;SDS011;7282;49.204;10.652;2023-11-19T09:22:27;5.17;;;2.33;;
14394;SDS011;7282;49.204;10.652;2023-11-19T09:24:54;4.83;;;2.87;;
14394;SDS011;7282;49.204;10.652;2023-11-19T09:27:21;3.80;;;2.30;;
14394;SDS011;7282;49.204;10.652;2023-11-19T09:29:47;4.30;;;2.67;;
14394;SDS011;7282;49.204;10.652;2023-11-19T09:32:15;5.97;;;2.67;;
14394;SDS011;7282;49.204;10.652;2023-11-19T09:34:42;2.93;;;2.37;;
14394;SDS011;7282;49.204;10.652;2023-11-19T09:37:09;5.07;;;2.50;;
14394;SDS011;7282;49.204;10.652;2023-11-19T09:39:35;4.30;;;2.53;;
14394;SDS011;7282;49.204;10.652;2023-11-19T09:42:02;2.33;;;2.13;;
14394;SDS011;7282;49.204;10.652;2023-11-19T09:44:29;3.53;;;2.50;;
14394;SDS011;7282;49.204;10.652;2023-11-19T09:46:56;4.47;;;3.00;;
14394;SDS011;7282;49.204;10.652;2023-11-19T09:49:23;2.87;;;2.57;;
14394;SDS011;7282;49.204;10.652;2023-11-19T09:51:51;4.43;;;2.50;;
14394;SDS011;7282;49.204;10.652;2023-11-19T09:54:21;4.00;;;3.30;;
14394;SDS011;7282;49.204;10.652;2023-11-19T09:56:47;5.43;;;3.87;;
14394;SDS011;7282;49.204;10.652;2023-11-19T09:59:15;3.00;;;2.20;;
14394;SDS011;7282;49.204;10.652;2023-11-19T10:01:42;3.03;;;2.20;;
14394;SDS011;7282;49.204;10.652;2023-11-19T10:04:09;5.37;;;2.43;;
14394;SDS011;7282;49.204;10.652;2023-11-19T10:06:36;2.90;;;2.10;;
14394;SDS011;7282;49.204;10.652;2023-11-19T10:09:03;4.23;;;2.00;;
14394;SDS011;7282;49.204;10.652;2023-11-19T10:11:31;2.10;;;1.90;;
14394;SDS011;7282;49.204;10.652;2023-11-19T10:13:58;3.13;;;2.03;;
14394;SDS011;7282;49.204;10.652;2023-11-19T10:16:29;2.70;;;1.90;;
14394;SDS011;7282;49.204;10.652;2023-11-19T10:18:57;1.70;;;1.60;;
14394;SDS011;7282;49.204;10.652;2023-11-19T10:21:24;2.20;;;2.00;;
14394;SDS011;7282;49.204;10.652;2023-11-19T10:23:51;1.67;;;1.57;;
14394;SDS011;7282;49.204;10.652;2023-11-19T10:26:19;2.07;;;1.70;;
14394;SDS011;7282;49.204;10.652;2023-11-19T10:28:49;2.47;;;1.70;;
14394;SDS011;7282;49.204;10.652;2023-11-19T10:31:16;2.13;;;1.93;;
14394;SDS011;7282;49.204;10.652;2023-11-19T10:33:44;1.60;;;1.50;;
14394;SDS011;7282;49.204;10.652;2023-11-19T10:36:14;2.47;;;1.80;;
14394;SDS011;7282;49.204;10.652;2023-11-19T10:38:40;2.70;;;1.50;;
14394;SDS011;7282;49.204;10.652;2023-11-19T10:41:09;1.80;;;1.70;;
14394;SDS011;7282;49.204;10.652;2023-11-19T10:43:42;3.17;;;1.40;;
14394;SDS011;7282;49.204;10.652;2023-11-19T10:46:11;1.60;;;1.30;;
14394;SDS011;7282;49.204;10.652;2023-11-19T10:48:38;3.03;;;1.37;;
14394;SDS011;7282;49.204;10.652;2023-11-19T10:51:05;2.57;;;1.40;;
14394;SDS011;7282;49.204;10.652;2023-11-19T10:53:37;1.73;;;1.37;;
14394;SDS011;7282;49.204;10.652;2023-11-19T10:56:10;3.47;;;1.70;;
14394;SDS011;7282;49.204;10.652;2023-11-19T10:58:36;2.10;;;1.37;;
14394;SDS011;7282;49.204;10.652;2023-11-19T11:01:09;3.57;;;1.60;;
14394;SDS011;7282;49.204;10.652;2023-11-19T11:03:39;2.00;;;1.60;;
14394;SDS011;7282;49.204;10.652;2023-11-19T11:06:05;1.80;;;1.67;;
14394;SDS011;7282;49.204;10.652;2023-11-19T11:08:32;1.60;;;1.50;;
14394;SDS011;7282;49.204;10.652;2023-11-19T11:11:01;2.93;;;1.63;;
14394;SDS011;7282;49.204;10.652;2023-11-19T11:13:28;2.67;;;1.70;;
14394;SDS011;7282;49.204;10.652;2023-11-19T11:15:56;4.13;;;1.60;;
14394;SDS011;7282;49.204;10.652;2023-11-19T11:18:25;2.07;;;1.40;;
14394;SDS011;7282;49.204;10.652;2023-11-19T11:20:57;2.63;;;1.50;;
14394;SDS011;7282;49.204;10.652;2023-11-19T11:23:26;1.53;;;1.40;;
14394;SDS011;7282;49.204;10.652;2023-11-19T11:28:21;2.57;;;1.33;;
14394;SDS011;7282;49.204;10.652;2023-11-19T11:30:51;2.40;;;1.40;;
14394;SDS011;7282;49.204;10.652;2023-11-19T11:33:23;4.40;;;2.17;;
14394;SDS011;7282;49.204;10.652;2023-11-19T11:35:50;2.70;;;1.80;;
14394;SDS011;7282;49.204;10.652;2023-11-19T11:38:15;2.50;;;1.40;;
14394;SDS011;7282;49.204;10.652;2023-11-19T11:40:44;2.10;;;1.47;;
14394;SDS011;7282;49.204;10.652;2023-11-19T11:45:59;2.60;;;1.70;;
14394;SDS011;7282;49.204;10.652;2023-11-19T11:48:27;1.40;;;1.30;;
14394;SDS011;7282;49.204;10.652;2023-11-19T11:50:57;2.67;;;1.40;;
14394;SDS011;7282;49.204;10.652;2023-11-19T11:53:25;3.33;;;1.40;;
14394;SDS011;7282;49.204;10.652;2023-11-19T11:55:52;2.27;;;1.50;;
14394;SDS011;7282;49.204;10.652;2023-11-19T11:58:21;1.97;;;1.43;;
14394;SDS011;7282;49.204;10.652;2023-11-19T12:00:51;4.03;;;1.90;;
14394;SDS011;7282;49.204;10.652;2023-11-19T12:03:19;2.67;;;1.40;;
14394;SDS011;7282;49.204;10.652;2023-11-19T12:05:46;2.57;;;1.50;;
14394;SDS011;7282;49.204;10.652;2023-11-19T12:08:14;3.90;;;1.40;;
14394;SDS011;7282;49.204;10.652;2023-11-19T12:10:45;2.87;;;1.70;;
14394;SDS011;7282;49.204;10.652;2023-11-19T12:13:13;2.27;;;1.70;;
14394;SDS011;7282;49.204;10.652;2023-11-19T12:18:29;2.00;;;1.80;;
14394;SDS011;7282;49.204;10.652;2023-11-19T12:20:53;3.77;;;1.53;;
14394;SDS011;7282;49.204;10.652;2023-11-19T12:23:20;3.57;;;2.10;;
14394;SDS011;7282;49.204;10.652;2023-11-19T12:25:46;1.80;;;1.40;;
14394;SDS011;7282;49.204;10.652;2023-11-19T12:28:13;1.63;;;1.13;;
14394;SDS011;7282;49.204;10.652;2023-11-19T12:30:40;2.10;;;1.67;;
14394;SDS011;7282;49.204;10.652;2023-11-19T12:33:10;1.40;;;1.30;;
14394;SDS011;7282;49.204;10.652;2023-11-19T12:35:42;2.57;;;1.30;;
14394;SDS011;7282;49.204;10.652;2023-11-19T12:38:06;3.13;;;2.67;;
14394;SDS011;7282;49.204;10.652;2023-11-19T12:40:33;2.33;;;1.50;;
14394;SDS011;7282;49.204;10.652;2023-11-19T12:43:02;4.10;;;1.70;;
14394;SDS011;7282;49.204;10.652;2023-11-19T12:45:35;2.87;;;1.40;;
14394;SDS011;7282;49.204;10.652;2023-11-19T12:48:06;2.23;;;1.40;;
14394;SDS011;7282;49.204;10.652;2023-11-19T12:53:19;2.40;;;2.00;;
14394;SDS011;7282;49.204;10.652;2023-11-19T12:55:46;3.20;;;1.43;;
14394;SDS011;7282;49.204;10.652;2023-11-19T12:58:28;2.90;;;1.30;;
14394;SDS011;7282;49.204;10.652;2023-11-19T13:01:07;1.63;;;1.27;;
14394;SDS011;7282;49.204;10.652;2023-11-19T13:03:36;2.60;;;1.40;;
14394;SDS011;7282;49.204;10.652;2023-11-19T13:06:05;1.23;;;1.10;;
14394;SDS011;7282;49.204;10.652;2023-11-19T13:08:40;2.03;;;1.00;;
14394;SDS011;7282;49.204;10.652;2023-11-19T13:11:07;1.40;;;1.00;;
14394;SDS011;7282;49.204;10.652;2023-11-19T13:13:57;2.13;;;1.20;;
14394;SDS011;7282;49.204;10.652;2023-11-19T13:16:21;1.67;;;0.80;;
14394;SDS011;7282;49.204;10.652;2023-11-19T13:18:48;1.70;;;0.90;;
14394;SDS011;7282;49.204;10.652;2023-11-19T13:21:15;1.03;;;1.03;;
14394;SDS011;7282;49.204;10.652;2023-11-19T13:23:42;2.13;;;1.43;;
14394;SDS011;7282;49.204;10.652;2023-11-19T13:26:09;1.67;;;1.20;;
14394;SDS011;7282;49.204;10.652;2023-11-19T13:28:37;2.57;;;1.20;;
14394;SDS011;7282;49.204;10.652;2023-11-19T13:31:04;2.70;;;1.20;;
14394;SDS011;7282;49.204;10.652;2023-11-19T13:33:31;2.23;;;1.20;;
14394;SDS011;7282;49.204;10.652;2023-11-19T13:35:57;1.20;;;0.93;;
14394;SDS011;7282;49.204;10.652;2023-11-19T13:38:25;2.30;;;1.43;;
14394;SDS011;7282;49.204;10.652;2023-11-19T13:40:52;2.30;;;1.07;;
14394;SDS011;7282;49.204;10.652;2023-11-19T13:43:19;2.03;;;1.50;;
14394;SDS011;7282;49.204;10.652;2023-11-19T13:45:45;1.67;;;0.90;;
14394;SDS011;7282;49.204;10.652;2023-11-19T13:48:12;2.57;;;1.27;;
14394;SDS011;7282;49.204;10.652;2023-11-19T13:50:39;3.80;;;1.30;;
14394;SDS011;7282;49.204;10.652;2023-11-19T13:53:06;1.57;;;1.30;;
14394;SDS011;7282;49.204;10.652;2023-11-19T13:55:32;1.37;;;1.17;;
14394;SDS011;7282;49.204;10.652;2023-11-19T13:57:59;2.23;;;1.30;;
14394;SDS011;7282;49.204;10.652;2023-11-19T14:00:26;2.20;;;1.40;;
14394;SDS011;7282;49.204;10.652;2023-11-19T14:02:52;3.60;;;2.10;;
14394;SDS011;7282;49.204;10.652;2023-11-19T14:05:19;2.10;;;1.60;;
14394;SDS011;7282;49.204;10.652;2023-11-19T14:07:46;1.63;;;1.40;;
14394;SDS011;7282;49.204;10.652;2023-11-19T14:10:17;2.23;;;1.20;;
14394;SDS011;7282;49.204;10.652;2023-11-19T14:12:44;1.57;;;1.40;;
14394;SDS011;7282;49.204;10.652;2023-11-19T14:15:11;1.63;;;1.30;;
14394;SDS011;7282;49.204;10.652;2023-11-19T14:17:40;3.67;;;1.57;;
14394;SDS011;7282;49.204;10.652;2023-11-19T14:20:07;1.47;;;1.37;;
14394;SDS011;7282;49.204;10.652;2023-11-19T14:22:40;2.80;;;1.40;;
14394;SDS011;7282;49.204;10.652;2023-11-19T14:25:07;3.67;;;1.57;;
14394;SDS011;7282;49.204;10.652;2023-11-19T14:27:39;1.57;;;1.40;;
14394;SDS011;7282;49.204;10.652;2023-11-19T14:30:06;4.13;;;1.77;;
14394;SDS011;7282;49.204;10.652;2023-11-19T14:32:37;2.97;;;1.40;;
14394;SDS011;7282;49.204;10.652;2023-11-19T14:35:04;2.47;;;1.40;;
14394;SDS011;7282;49.204;10.652;2023-11-19T14:37:31;2.47;;;1.40;;
14394;SDS011;7282;49.204;10.652;2023-11-19T14:39:58;2.20;;;1.33;;
14394;SDS011;7282;49.204;10.652;2023-11-19T14:42:25;1.67;;;1.23;;
14394;SDS011;7282;49.204;10.652;2023-11-19T14:44:52;1.50;;;1.40;;
14394;SDS011;7282;49.204;10.652;2023-11-19T14:47:19;1.80;;;1.37;;
14394;SDS011;7282;49.204;10.652;2023-11-19T14:49:46;3.20;;;1.50;;
14394;SDS011;7282;49.204;10.652;2023-11-19T14:52:13;2.97;;;1.67;;
14394;SDS011;7282;49.204;10.652;2023-11-19T14:54:39;2.93;;;1.50;;